Time,TemperatureF,DewpointF,PressureIn,WindDirection,WindDirectionDegrees,WindSpeedMPH,WindSpeedGustMPH,Humidity,HourlyPrecipIn,Conditions,Clouds,dailyrainin,SoftwareType,DateUTC
2013-04-20 00:01:00,39.0,27.5,29.79,West,270,14.0,18.0,63,0.00,,---,0.00,VWS V14.01,2013-04-20 04:01:00,
2013-04-20 00:02:00,39.0,27.9,29.79,West,270,11.0,18.0,64,0.00,,---,0.00,VWS V14.01,2013-04-20 04:02:00,
2013-04-20 00:03:00,39.0,28.2,29.79,WNW,292,8.0,18.0,65,0.00,,---,0.00,VWS V14.01,2013-04-20 04:03:00,
2013-04-20 00:04:00,39.0,27.9,29.78,WSW,248,11.0,18.0,64,0.00,,---,0.00,VWS V14.01,2013-04-20 04:04:00,
2013-04-20 00:09:00,39.0,27.9,29.79,West,270,13.0,18.0,64,0.00,,---,0.00,VWS V14.01,2013-04-20 04:09:00,
2013-04-20 00:14:00,39.0,28.6,29.79,WSW,248,12.0,18.0,66,0.00,,---,0.00,VWS V14.01,2013-04-20 04:14:00,
2013-04-20 00:19:00,39.0,28.6,29.79,West,270,12.0,18.0,66,0.00,,---,0.00,VWS V14.01,2013-04-20 04:19:00,
2013-04-20 00:24:00,39.0,29.0,29.78,West,270,6.0,12.0,67,0.00,,---,0.00,VWS V14.01,2013-04-20 04:24:00,
2013-04-20 00:29:00,39.0,28.6,29.79,West,270,8.0,13.0,66,0.00,,---,0.00,VWS V14.01,2013-04-20 04:29:00,
2013-04-20 00:34:00,39.0,28.6,29.79,WSW,248,11.0,14.0,66,0.00,,---,0.00,VWS V14.01,2013-04-20 04:34:00,
2013-04-20 00:39:00,39.0,29.4,29.79,WSW,248,8.0,14.0,68,0.00,,---,0.00,VWS V14.01,2013-04-20 04:39:00,
2013-04-20 00:44:00,38.0,28.8,29.79,West,270,9.0,16.0,69,0.00,,---,0.00,VWS V14.01,2013-04-20 04:44:00,
2013-04-20 00:50:00,38.0,28.4,29.79,West,270,6.0,16.0,68,0.00,,---,0.00,VWS V14.01,2013-04-20 04:50:00,
2013-04-20 00:55:00,38.0,29.1,29.79,WNW,292,13.0,16.0,70,0.00,,---,0.00,VWS V14.01,2013-04-20 04:55:00,
2013-04-20 01:00:00,38.0,29.1,29.79,WSW,248,8.0,16.0,70,0.00,,---,0.00,VWS V14.01,2013-04-20 05:00:00,
2013-04-20 01:05:00,38.0,29.1,29.79,West,270,9.0,14.0,70,0.00,,---,0.00,VWS V14.01,2013-04-20 05:05:00,
2013-04-20 01:10:00,38.0,29.1,29.79,WSW,248,10.0,14.0,70,0.00,,---,0.00,VWS V14.01,2013-04-20 05:10:00,
2013-04-20 01:15:00,38.0,29.1,29.79,WSW,248,10.0,15.0,70,0.00,,---,0.00,VWS V14.01,2013-04-20 05:15:00,
2013-04-20 01:20:00,38.0,28.8,29.79,SW,225,11.0,16.0,69,0.00,,---,0.00,VWS V14.01,2013-04-20 05:20:00,
2013-04-20 01:25:00,38.0,28.8,29.79,WSW,248,8.0,14.0,69,0.00,,---,0.00,VWS V14.01,2013-04-20 05:25:00,
2013-04-20 01:30:00,38.0,28.4,29.80,WSW,248,9.0,17.0,68,0.00,,---,0.00,VWS V14.01,2013-04-20 05:30:00,
2013-04-20 01:35:00,38.0,28.4,29.80,WSW,248,14.0,23.0,68,0.00,,---,0.00,VWS V14.01,2013-04-20 05:35:00,
2013-04-20 01:40:00,37.0,27.8,29.80,WSW,248,10.0,23.0,69,0.00,,---,0.00,VWS V14.01,2013-04-20 05:40:00,
2013-04-20 01:45:00,37.0,27.8,29.80,WSW,248,16.0,23.0,69,0.00,,---,0.00,VWS V14.01,2013-04-20 05:45:00,
2013-04-20 01:50:00,37.0,27.8,29.80,WSW,248,12.0,23.0,69,0.00,,---,0.00,VWS V14.01,2013-04-20 05:50:00,
2013-04-20 01:55:00,37.0,27.8,29.80,West,270,14.0,23.0,69,0.00,,---,0.00,VWS V14.01,2013-04-20 05:55:00,
2013-04-20 02:01:00,37.0,28.1,29.79,SW,225,6.0,13.0,70,0.00,,---,0.00,VWS V14.01,2013-04-20 06:01:00,
2013-04-20 02:06:00,37.0,27.4,29.79,SW,225,16.0,25.0,68,0.00,,---,0.00,VWS V14.01,2013-04-20 06:06:00,
2013-04-20 02:11:00,37.0,27.4,29.79,SW,225,8.0,25.0,68,0.00,,---,0.00,VWS V14.01,2013-04-20 06:11:00,
2013-04-20 02:16:00,37.0,27.4,29.78,WSW,248,11.0,25.0,68,0.00,,---,0.00,VWS V14.01,2013-04-20 06:16:00,
2013-04-20 02:21:00,37.0,26.7,29.78,SW,225,11.0,11.0,66,0.00,,---,0.00,VWS V14.01,2013-04-20 06:21:00,
2013-04-20 02:26:00,37.0,26.3,29.78,SW,225,11.0,19.0,65,0.00,,---,0.00,VWS V14.01,2013-04-20 06:26:00,
2013-04-20 02:31:00,37.0,26.3,29.78,WSW,248,11.0,21.0,65,0.00,,---,0.00,VWS V14.01,2013-04-20 06:31:00,
2013-04-20 02:36:00,37.0,26.0,29.78,SW,225,10.0,21.0,64,0.00,,---,0.00,VWS V14.01,2013-04-20 06:36:00,
2013-04-20 02:41:00,37.0,26.3,29.79,SW,225,13.0,15.0,65,0.00,,---,0.00,VWS V14.01,2013-04-20 06:41:00,
2013-04-20 02:46:00,37.0,26.0,29.79,WSW,248,11.0,24.0,64,0.00,,---,0.00,VWS V14.01,2013-04-20 06:46:00,
2013-04-20 02:51:00,37.0,26.3,29.78,West,270,6.0,24.0,65,0.00,,---,0.00,VWS V14.01,2013-04-20 06:51:00,
2013-04-20 02:56:00,37.0,26.0,29.79,WSW,248,16.0,24.0,64,0.00,,---,0.00,VWS V14.01,2013-04-20 06:56:00,
2013-04-20 03:02:00,37.0,26.3,29.79,WSW,248,9.0,14.0,65,0.00,,---,0.00,VWS V14.01,2013-04-20 07:02:00,
2013-04-20 03:07:00,37.0,26.3,29.79,WSW,248,8.0,19.0,65,0.00,,---,0.00,VWS V14.01,2013-04-20 07:07:00,
2013-04-20 03:12:00,37.0,27.8,29.80,WSW,248,20.0,22.0,69,0.00,,---,0.00,VWS V14.01,2013-04-20 07:12:00,
2013-04-20 03:17:00,36.0,29.5,29.79,WNW,292,7.0,26.0,77,0.00,,---,0.00,VWS V14.01,2013-04-20 07:17:00,
2013-04-20 03:22:00,34.0,30.3,29.80,WNW,292,10.0,18.0,86,0.00,,---,0.00,VWS V14.01,2013-04-20 07:22:00,
2013-04-20 03:27:00,33.0,30.4,29.81,West,270,17.0,19.0,90,0.00,,---,0.00,VWS V14.01,2013-04-20 07:27:00,
2013-04-20 03:32:00,33.0,30.7,29.80,WSW,248,8.0,19.0,91,0.00,,---,0.00,VWS V14.01,2013-04-20 07:32:00,
2013-04-20 03:37:00,32.0,29.4,29.80,West,270,10.0,19.0,90,0.00,,---,0.00,VWS V14.01,2013-04-20 07:37:00,
2013-04-20 03:42:00,32.0,29.4,29.80,WSW,248,9.0,13.0,90,0.00,,---,0.00,VWS V14.01,2013-04-20 07:42:00,
2013-04-20 03:47:00,33.0,30.1,29.80,SW,225,6.0,19.0,89,0.00,,---,0.00,VWS V14.01,2013-04-20 07:47:00,
2013-04-20 03:52:00,33.0,29.8,29.81,WSW,248,8.0,19.0,88,0.00,,---,0.00,VWS V14.01,2013-04-20 07:52:00,
2013-04-20 03:57:00,33.0,29.8,29.81,WNW,292,10.0,19.0,88,0.00,,---,0.00,VWS V14.01,2013-04-20 07:57:00,
2013-04-20 04:02:00,33.0,30.1,29.81,WSW,248,13.0,17.0,89,0.00,,---,0.00,VWS V14.01,2013-04-20 08:02:00,
2013-04-20 04:07:00,32.0,29.4,29.80,SSW,202,5.0,17.0,90,0.00,,---,0.00,VWS V14.01,2013-04-20 08:07:00,
2013-04-20 04:13:00,32.0,29.7,29.80,WSW,248,7.0,17.0,91,0.00,,---,0.00,VWS V14.01,2013-04-20 08:13:00,
2013-04-20 04:18:00,32.0,29.9,29.81,WSW,248,9.0,17.0,92,0.00,,---,0.00,VWS V14.01,2013-04-20 08:18:00,
2013-04-20 04:23:00,32.0,30.2,29.81,WSW,248,7.0,11.0,93,0.00,,---,0.00,VWS V14.01,2013-04-20 08:23:00,
2013-04-20 04:28:00,32.0,30.2,29.81,SW,225,9.0,11.0,93,0.00,,---,0.00,VWS V14.01,2013-04-20 08:28:00,
2013-04-20 04:33:00,32.0,30.2,29.81,WSW,248,6.0,13.0,93,0.00,,---,0.00,VWS V14.01,2013-04-20 08:33:00,
2013-04-20 04:38:00,32.0,30.2,29.81,WSW,248,6.0,13.0,93,0.00,,---,0.00,VWS V14.01,2013-04-20 08:38:00,
2013-04-20 04:43:00,33.0,30.9,29.82,WSW,248,11.0,16.0,92,0.00,,---,0.00,VWS V14.01,2013-04-20 08:43:00,
2013-04-20 04:48:00,33.0,30.9,29.82,SW,225,10.0,16.0,92,0.00,,---,0.00,VWS V14.01,2013-04-20 08:48:00,
2013-04-20 04:53:00,33.0,30.7,29.81,SW,225,16.0,18.0,91,0.00,,---,0.00,VWS V14.01,2013-04-20 08:53:00,
2013-04-20 04:58:00,33.0,30.1,29.82,WSW,248,11.0,18.0,89,0.00,,---,0.00,VWS V14.01,2013-04-20 08:58:00,
2013-04-20 05:03:00,33.0,29.6,29.82,West,270,10.0,18.0,87,0.00,,---,0.00,VWS V14.01,2013-04-20 09:03:00,
2013-04-20 05:08:00,33.0,28.4,29.82,WSW,248,19.0,25.0,83,0.00,,---,0.00,VWS V14.01,2013-04-20 09:08:00,
2013-04-20 05:13:00,34.0,29.4,29.82,West,270,12.0,25.0,83,0.00,,---,0.00,VWS V14.01,2013-04-20 09:13:00,
2013-04-20 05:19:00,34.0,28.8,29.82,WSW,248,16.0,25.0,81,0.00,,---,0.00,VWS V14.01,2013-04-20 09:19:00,
2013-04-20 05:24:00,34.0,28.5,29.82,WNW,292,12.0,27.0,80,0.00,,---,0.00,VWS V14.01,2013-04-20 09:24:00,
2013-04-20 05:29:00,34.0,28.8,29.83,WSW,248,26.0,29.0,81,0.00,,---,0.00,VWS V14.01,2013-04-20 09:29:00,
2013-04-20 05:34:00,33.0,28.1,29.83,WSW,248,14.0,32.0,82,0.00,,---,0.00,VWS V14.01,2013-04-20 09:34:00,
2013-04-20 05:39:00,33.0,28.1,29.83,WSW,248,23.0,32.0,82,0.00,,---,0.00,VWS V14.01,2013-04-20 09:39:00,
2013-04-20 05:44:00,33.0,28.7,29.83,WSW,248,18.0,24.0,84,0.00,,---,0.00,VWS V14.01,2013-04-20 09:44:00,
2013-04-20 05:49:00,33.0,29.0,29.83,WSW,248,12.0,24.0,85,0.00,,---,0.00,VWS V14.01,2013-04-20 09:49:00,
2013-04-20 05:54:00,33.0,29.0,29.83,WSW,248,14.0,24.0,85,0.00,,---,0.00,VWS V14.01,2013-04-20 09:54:00,
2013-04-20 05:59:00,33.0,29.0,29.83,WSW,248,14.0,24.0,85,0.00,,---,0.00,VWS V14.01,2013-04-20 09:59:00,
2013-04-20 06:04:00,33.0,29.3,29.84,WSW,248,13.0,15.0,86,0.00,,---,0.00,VWS V14.01,2013-04-20 10:04:00,
2013-04-20 06:09:00,33.0,29.0,29.84,West,270,13.0,23.0,85,0.00,,---,0.00,VWS V14.01,2013-04-20 10:09:00,
2013-04-20 06:14:00,33.0,28.7,29.84,WSW,248,16.0,24.0,84,0.00,,---,0.00,VWS V14.01,2013-04-20 10:14:00,
2013-04-20 06:19:00,33.0,28.4,29.84,West,270,13.0,27.0,83,0.00,,---,0.00,VWS V14.01,2013-04-20 10:19:00,
2013-04-20 06:25:00,33.0,28.1,29.84,SW,225,10.0,22.0,82,0.00,,---,0.00,VWS V14.01,2013-04-20 10:25:00,
2013-04-20 06:30:00,33.0,27.8,29.85,SW,225,11.0,22.0,81,0.00,,---,0.00,VWS V14.01,2013-04-20 10:30:00,
2013-04-20 06:35:00,33.0,27.8,29.85,SW,225,8.0,22.0,81,0.00,,---,0.00,VWS V14.01,2013-04-20 10:35:00,
2013-04-20 06:40:00,33.0,26.9,29.85,West,270,17.0,26.0,78,0.00,,---,0.00,VWS V14.01,2013-04-20 10:40:00,
2013-04-20 06:45:00,34.0,26.6,29.85,West,270,14.0,30.0,74,0.00,,---,0.00,VWS V14.01,2013-04-20 10:45:00,
2013-04-20 06:50:00,34.0,26.3,29.85,WNW,292,13.0,30.0,73,0.00,,---,0.00,VWS V14.01,2013-04-20 10:50:00,
2013-04-20 06:55:00,34.0,25.9,29.85,WSW,248,16.0,31.0,72,0.00,,---,0.00,VWS V14.01,2013-04-20 10:55:00,
2013-04-20 07:00:00,34.0,26.3,29.85,SW,225,7.0,10.0,73,0.00,,---,0.00,VWS V14.01,2013-04-20 11:00:00,
2013-04-20 07:06:00,34.0,25.9,29.85,WSW,248,11.0,19.0,72,0.00,,---,0.00,VWS V14.01,2013-04-20 11:06:00,
2013-04-20 07:11:00,34.0,26.3,29.86,WSW,248,15.0,19.0,73,0.00,,---,0.00,VWS V14.01,2013-04-20 11:11:00,
2013-04-20 07:16:00,34.0,26.3,29.86,West,270,9.0,20.0,73,0.00,,---,0.00,VWS V14.01,2013-04-20 11:16:00,
2013-04-20 07:21:00,34.0,25.9,29.86,WSW,248,16.0,19.0,72,0.00,,---,0.00,VWS V14.01,2013-04-20 11:21:00,
2013-04-20 07:26:00,34.0,25.9,29.86,WSW,248,17.0,20.0,72,0.00,,---,0.00,VWS V14.01,2013-04-20 11:26:00,
2013-04-20 07:31:00,34.0,25.9,29.87,WSW,248,14.0,20.0,72,0.00,,---,0.00,VWS V14.01,2013-04-20 11:31:00,
2013-04-20 07:36:00,34.0,26.6,29.87,WSW,248,14.0,26.0,74,0.00,,---,0.00,VWS V14.01,2013-04-20 11:36:00,
2013-04-20 07:41:00,34.0,28.8,29.89,WNW,292,14.0,19.0,81,0.00,,---,0.00,VWS V14.01,2013-04-20 11:41:00,
2013-04-20 07:46:00,32.0,29.7,29.89,WNW,292,8.0,22.0,91,0.00,,---,0.00,VWS V14.01,2013-04-20 11:46:00,
2013-04-20 07:52:00,31.0,28.7,29.90,West,270,18.0,23.0,91,0.00,,---,0.00,VWS V14.01,2013-04-20 11:52:00,
2013-04-20 07:57:00,31.0,28.4,29.90,WSW,248,13.0,28.0,90,0.00,,---,0.00,VWS V14.01,2013-04-20 11:57:00,
2013-04-20 08:02:00,31.0,28.4,29.90,WSW,248,8.0,18.0,90,0.00,,---,0.00,VWS V14.01,2013-04-20 12:02:00,
2013-04-20 08:07:00,31.0,27.9,29.90,West,270,11.0,22.0,88,0.00,,---,0.00,VWS V14.01,2013-04-20 12:07:00,
2013-04-20 08:12:00,31.0,27.6,29.90,West,270,16.0,23.0,87,0.00,,---,0.00,VWS V14.01,2013-04-20 12:12:00,
2013-04-20 08:17:00,31.0,27.6,29.90,West,270,8.0,23.0,87,0.00,,---,0.00,VWS V14.01,2013-04-20 12:17:00,
2013-04-20 08:22:00,32.0,28.6,29.91,West,270,10.0,12.0,87,0.00,,---,0.00,VWS V14.01,2013-04-20 12:22:00,
2013-04-20 08:27:00,32.0,28.0,29.91,West,270,15.0,19.0,85,0.00,,---,0.00,VWS V14.01,2013-04-20 12:27:00,
2013-04-20 08:32:00,32.0,28.3,29.91,West,270,13.0,19.0,86,0.00,,---,0.00,VWS V14.01,2013-04-20 12:32:00,
2013-04-20 08:37:00,32.0,28.0,29.91,West,270,5.0,19.0,85,0.00,,---,0.00,VWS V14.01,2013-04-20 12:37:00,
2013-04-20 08:42:00,33.0,29.3,29.92,WNW,292,10.0,13.0,86,0.00,,---,0.00,VWS V14.01,2013-04-20 12:42:00,
2013-04-20 08:47:00,32.0,29.1,29.92,WNW,292,8.0,18.0,89,0.00,,---,0.00,VWS V14.01,2013-04-20 12:47:00,
2013-04-20 08:53:00,32.0,29.7,29.92,WNW,292,6.0,18.0,91,0.00,,---,0.00,VWS V14.01,2013-04-20 12:53:00,
2013-04-20 08:58:00,32.0,29.7,29.92,West,270,11.0,18.0,91,0.00,,---,0.00,VWS V14.01,2013-04-20 12:58:00,
2013-04-20 09:03:00,32.0,29.1,29.92,West,270,9.0,17.0,89,0.00,,---,0.00,VWS V14.01,2013-04-20 13:03:00,
2013-04-20 09:08:00,33.0,29.6,29.92,WSW,248,16.0,19.0,87,0.00,,---,0.00,VWS V14.01,2013-04-20 13:08:00,
2013-04-20 09:13:00,33.0,28.7,29.92,WNW,292,11.0,19.0,84,0.00,,---,0.00,VWS V14.01,2013-04-20 13:13:00,
2013-04-20 09:18:00,33.0,28.4,29.93,West,270,15.0,23.0,83,0.00,,---,0.00,VWS V14.01,2013-04-20 13:18:00,
2013-04-20 09:23:00,33.0,29.3,29.93,West,270,6.0,18.0,86,0.00,,---,0.00,VWS V14.01,2013-04-20 13:23:00,
2013-04-20 09:28:00,33.0,29.8,29.93,West,270,13.0,18.0,88,0.00,,---,0.00,VWS V14.01,2013-04-20 13:28:00,
2013-04-20 09:33:00,32.0,29.7,29.94,WNW,292,9.0,18.0,91,0.00,,---,0.00,VWS V14.01,2013-04-20 13:33:00,
2013-04-20 09:38:00,32.0,30.2,29.94,West,270,16.0,18.0,93,0.00,,---,0.00,VWS V14.01,2013-04-20 13:38:00,
2013-04-20 09:43:00,31.0,29.7,29.94,WNW,292,14.0,22.0,95,0.00,,---,0.00,VWS V14.01,2013-04-20 13:43:00,
2013-04-20 09:49:00,32.0,30.7,29.95,West,270,9.0,23.0,95,0.00,,---,0.00,VWS V14.01,2013-04-20 13:49:00,
2013-04-20 09:54:00,33.0,31.5,29.95,SW,225,10.0,23.0,94,0.00,,---,0.00,VWS V14.01,2013-04-20 13:54:00,
2013-04-20 09:59:00,33.0,30.9,29.95,West,270,20.0,23.0,92,0.00,,---,0.00,VWS V14.01,2013-04-20 13:59:00,
2013-04-20 10:04:00,34.0,30.3,29.96,WNW,292,16.0,24.0,86,0.00,,---,0.00,VWS V14.01,2013-04-20 14:04:00,
2013-04-20 10:09:00,35.0,28.5,29.96,West,270,16.0,32.0,77,0.01,,---,0.01,VWS V14.01,2013-04-20 14:09:00,
2013-04-20 10:14:00,35.0,27.9,29.96,WSW,248,24.0,35.0,75,0.02,,---,0.02,VWS V14.01,2013-04-20 14:14:00,
2013-04-20 10:19:00,35.0,25.5,29.97,West,270,19.0,41.0,68,0.02,,---,0.02,VWS V14.01,2013-04-20 14:19:00,
2013-04-20 10:24:00,36.0,27.2,29.97,West,270,19.0,29.0,70,0.02,,---,0.02,VWS V14.01,2013-04-20 14:24:00,
2013-04-20 10:29:00,36.0,27.2,29.98,WNW,292,21.0,35.0,70,0.02,,---,0.02,VWS V14.01,2013-04-20 14:29:00,
2013-04-20 10:34:00,36.0,27.2,29.98,WNW,292,13.0,35.0,70,0.02,,---,0.02,VWS V14.01,2013-04-20 14:34:00,
2013-04-20 10:40:00,35.0,24.8,29.98,WNW,292,27.0,35.0,66,0.02,,---,0.02,VWS V14.01,2013-04-20 14:40:00,
2013-04-20 10:45:00,35.0,25.2,29.99,WNW,292,22.0,34.0,67,0.02,,---,0.02,VWS V14.01,2013-04-20 14:45:00,
2013-04-20 10:50:00,35.0,24.1,29.99,West,270,25.0,34.0,64,0.02,,---,0.02,VWS V14.01,2013-04-20 14:50:00,
2013-04-20 10:55:00,34.0,23.1,30.00,NNW,338,14.0,36.0,64,0.02,,---,0.02,VWS V14.01,2013-04-20 14:55:00,
2013-04-20 11:00:00,35.0,25.5,30.00,WNW,292,16.0,36.0,68,0.02,,---,0.02,VWS V14.01,2013-04-20 15:00:00,
2013-04-20 11:05:00,34.0,24.9,30.01,WNW,292,16.0,26.0,69,0.02,,---,0.02,VWS V14.01,2013-04-20 15:05:00,
2013-04-20 11:10:00,34.0,24.2,30.01,NW,315,12.0,32.0,67,0.02,,---,0.02,VWS V14.01,2013-04-20 15:10:00,
2013-04-20 11:15:00,34.0,23.9,30.02,WNW,292,23.0,32.0,66,0.03,,---,0.03,VWS V14.01,2013-04-20 15:15:00,
2013-04-20 11:20:00,34.0,23.1,30.02,WNW,292,22.0,25.0,64,0.01,,---,0.03,VWS V14.01,2013-04-20 15:20:00,
2013-04-20 11:25:00,34.0,23.5,30.02,WNW,292,18.0,28.0,65,0.01,,---,0.03,VWS V14.01,2013-04-20 15:25:00,
2013-04-20 11:31:00,35.0,24.8,30.02,WNW,292,11.0,28.0,66,0.01,,---,0.03,VWS V14.01,2013-04-20 15:31:00,
2013-04-20 11:36:00,35.0,24.4,30.03,WNW,292,18.0,28.0,65,0.01,,---,0.03,VWS V14.01,2013-04-20 15:36:00,
2013-04-20 11:41:00,35.0,24.4,30.03,WSW,248,11.0,18.0,65,0.01,,---,0.03,VWS V14.01,2013-04-20 15:41:00,
2013-04-20 11:46:00,35.0,24.8,30.03,WNW,292,10.0,25.0,66,0.01,,---,0.03,VWS V14.01,2013-04-20 15:46:00,
2013-04-20 11:51:00,34.0,24.2,30.04,NW,315,6.0,25.0,67,0.01,,---,0.03,VWS V14.01,2013-04-20 15:51:00,
2013-04-20 11:56:00,34.0,24.9,30.04,NW,315,11.0,25.0,69,0.01,,---,0.03,VWS V14.01,2013-04-20 15:56:00,
2013-04-20 12:01:00,34.0,24.2,30.05,WNW,292,16.0,25.0,67,0.01,,---,0.03,VWS V14.01,2013-04-20 16:01:00,
2013-04-20 12:06:00,35.0,25.9,30.05,WNW,292,16.0,34.0,69,0.01,,---,0.03,VWS V14.01,2013-04-20 16:06:00,
2013-04-20 12:11:00,34.0,24.2,30.06,WNW,292,17.0,34.0,67,0.01,,---,0.03,VWS V14.01,2013-04-20 16:11:00,
2013-04-20 12:17:00,35.0,25.5,30.05,West,270,13.0,34.0,68,0.01,,---,0.03,VWS V14.01,2013-04-20 16:17:00,
2013-04-20 12:22:00,34.0,24.2,30.06,WSW,248,16.0,20.0,67,0.00,,---,0.03,VWS V14.01,2013-04-20 16:22:00,
2013-04-20 12:27:00,35.0,24.8,30.06,WNW,292,16.0,24.0,66,0.00,,---,0.03,VWS V14.01,2013-04-20 16:27:00,
2013-04-20 12:32:00,35.0,24.8,30.06,WNW,292,24.0,26.0,66,0.00,,---,0.03,VWS V14.01,2013-04-20 16:32:00,
2013-04-20 12:37:00,34.0,23.5,30.07,WNW,292,19.0,28.0,65,0.00,,---,0.03,VWS V14.01,2013-04-20 16:37:00,
2013-04-20 12:42:00,34.0,24.9,30.07,West,270,11.0,16.0,69,0.00,,---,0.03,VWS V14.01,2013-04-20 16:42:00,
2013-04-20 12:47:00,33.0,24.0,30.07,WNW,292,20.0,26.0,69,0.00,,---,0.03,VWS V14.01,2013-04-20 16:47:00,
2013-04-20 12:52:00,33.0,23.6,30.08,WNW,292,14.0,27.0,68,0.00,,---,0.03,VWS V14.01,2013-04-20 16:52:00,
2013-04-20 12:57:00,33.0,23.2,30.08,West,270,18.0,28.0,67,0.00,,---,0.03,VWS V14.01,2013-04-20 16:57:00,
2013-04-20 13:02:00,34.0,24.6,30.08,WNW,292,15.0,21.0,68,0.00,,---,0.03,VWS V14.01,2013-04-20 17:02:00,
2013-04-20 13:07:00,33.0,22.9,30.09,WNW,292,24.0,27.0,66,0.00,,---,0.03,VWS V14.01,2013-04-20 17:07:00,
2013-04-20 13:13:00,33.0,24.0,30.09,WNW,292,12.0,27.0,69,0.00,,---,0.03,VWS V14.01,2013-04-20 17:13:00,
2013-04-20 13:18:00,33.0,23.2,30.10,WNW,292,18.0,27.0,67,0.00,,---,0.03,VWS V14.01,2013-04-20 17:18:00,
2013-04-20 13:23:00,33.0,22.5,30.10,WNW,292,18.0,31.0,65,0.00,,---,0.03,VWS V14.01,2013-04-20 17:23:00,
2013-04-20 13:28:00,33.0,22.5,30.10,West,270,16.0,31.0,65,0.00,,---,0.03,VWS V14.01,2013-04-20 17:28:00,
2013-04-20 13:33:00,33.0,22.5,30.11,WNW,292,22.0,31.0,65,0.00,,---,0.03,VWS V14.01,2013-04-20 17:33:00,
2013-04-20 13:38:00,33.0,22.5,30.11,West,270,14.0,31.0,65,0.00,,---,0.03,VWS V14.01,2013-04-20 17:38:00,
2013-04-20 13:43:00,33.0,22.9,30.11,WSW,248,14.0,18.0,66,0.00,,---,0.03,VWS V14.01,2013-04-20 17:43:00,
2013-04-20 13:48:00,33.0,22.2,30.11,WNW,292,17.0,26.0,64,0.00,,---,0.03,VWS V14.01,2013-04-20 17:48:00,
2013-04-20 13:53:00,33.0,22.9,30.11,WNW,292,11.0,26.0,66,0.00,,---,0.03,VWS V14.01,2013-04-20 17:53:00,
2013-04-20 13:59:00,34.0,23.5,30.11,WNW,292,11.0,26.0,65,0.00,,---,0.03,VWS V14.01,2013-04-20 17:59:00,
2013-04-20 14:04:00,33.0,21.0,30.12,WNW,292,17.0,21.0,61,0.00,,---,0.03,VWS V14.01,2013-04-20 18:04:00,
2013-04-20 14:09:00,34.0,22.7,30.12,WNW,292,21.0,24.0,63,0.00,,---,0.03,VWS V14.01,2013-04-20 18:09:00,
2013-04-20 14:14:00,33.0,21.4,30.12,WNW,292,16.0,24.0,62,0.00,,---,0.03,VWS V14.01,2013-04-20 18:14:00,
2013-04-20 14:19:00,34.0,22.4,30.12,WNW,292,12.0,29.0,62,0.00,,---,0.03,VWS V14.01,2013-04-20 18:19:00,
2013-04-20 14:24:00,34.0,21.6,30.13,West,270,13.0,27.0,60,0.00,,---,0.03,VWS V14.01,2013-04-20 18:24:00,
2013-04-20 14:29:00,34.0,21.6,30.13,NW,315,8.0,27.0,60,0.00,,---,0.03,VWS V14.01,2013-04-20 18:29:00,
2013-04-20 14:34:00,34.0,21.2,30.13,WNW,292,23.0,31.0,59,0.00,,---,0.03,VWS V14.01,2013-04-20 18:34:00,
2013-04-20 14:39:00,35.0,22.1,30.13,West,270,18.0,31.0,59,0.00,,---,0.03,VWS V14.01,2013-04-20 18:39:00,
2013-04-20 14:44:00,35.0,22.5,30.14,West,270,12.0,23.0,60,0.00,,---,0.03,VWS V14.01,2013-04-20 18:44:00,
2013-04-20 14:50:00,34.0,19.5,30.14,WNW,292,20.0,30.0,55,0.00,,---,0.03,VWS V14.01,2013-04-20 18:50:00,
2013-04-20 14:55:00,35.0,20.9,30.14,WSW,248,14.0,31.0,56,0.00,,---,0.03,VWS V14.01,2013-04-20 18:55:00,
2013-04-20 15:00:00,34.0,20.4,30.15,WNW,292,14.0,31.0,57,0.00,,---,0.03,VWS V14.01,2013-04-20 19:00:00,
2013-04-20 15:05:00,35.0,21.7,30.15,WNW,292,18.0,24.0,58,0.00,,---,0.03,VWS V14.01,2013-04-20 19:05:00,
2013-04-20 15:10:00,35.0,19.6,30.15,NW,315,17.0,32.0,53,0.00,,---,0.03,VWS V14.01,2013-04-20 19:10:00,
2013-04-20 15:15:00,34.0,19.1,30.16,WNW,292,15.0,32.0,54,0.00,,---,0.03,VWS V14.01,2013-04-20 19:15:00,
2013-04-20 15:20:00,35.0,19.6,30.16,WNW,292,16.0,32.0,53,0.00,,---,0.03,VWS V14.01,2013-04-20 19:20:00,
2013-04-20 15:25:00,35.0,19.2,30.16,West,270,13.0,30.0,52,0.00,,---,0.03,VWS V14.01,2013-04-20 19:25:00,
2013-04-20 15:30:00,34.0,20.0,30.17,WNW,292,9.0,30.0,56,0.00,,---,0.03,VWS V14.01,2013-04-20 19:30:00,
2013-04-20 15:35:00,34.0,20.8,30.17,West,270,11.0,30.0,58,0.00,,---,0.03,VWS V14.01,2013-04-20 19:35:00,
2013-04-20 15:40:00,35.0,21.7,30.18,West,270,10.0,16.0,58,0.00,,---,0.03,VWS V14.01,2013-04-20 19:40:00,
2013-04-20 15:46:00,34.0,20.8,30.18,NW,315,21.0,23.0,58,0.00,,---,0.03,VWS V14.01,2013-04-20 19:46:00,
2013-04-20 15:51:00,34.0,20.4,30.18,WNW,292,20.0,23.0,57,0.00,,---,0.03,VWS V14.01,2013-04-20 19:51:00,
2013-04-20 15:56:00,34.0,19.5,30.18,WNW,292,14.0,24.0,55,0.00,,---,0.03,VWS V14.01,2013-04-20 19:56:00,
2013-04-20 16:01:00,34.0,20.0,30.19,WNW,292,11.0,14.0,56,0.00,,---,0.03,VWS V14.01,2013-04-20 20:01:00,
2013-04-20 16:06:00,34.0,20.4,30.19,WNW,292,11.0,27.0,57,0.00,,---,0.03,VWS V14.01,2013-04-20 20:06:00,
2013-04-20 16:11:00,34.0,20.4,30.19,NW,315,15.0,27.0,57,0.00,,---,0.03,VWS V14.01,2013-04-20 20:11:00,
2013-04-20 16:16:00,34.0,20.0,30.19,WNW,292,10.0,27.0,56,0.00,,---,0.03,VWS V14.01,2013-04-20 20:16:00,
2013-04-20 16:21:00,33.0,18.6,30.19,WNW,292,9.0,19.0,55,0.00,,---,0.03,VWS V14.01,2013-04-20 20:21:00,
2013-04-20 16:26:00,34.0,20.0,30.20,NNW,338,8.0,26.0,56,0.00,,---,0.03,VWS V14.01,2013-04-20 20:26:00,
2013-04-20 16:31:00,33.0,18.6,30.20,WSW,248,10.0,26.0,55,0.00,,---,0.03,VWS V14.01,2013-04-20 20:31:00,
2013-04-20 16:37:00,33.0,20.2,30.20,WNW,292,5.0,26.0,59,0.00,,---,0.03,VWS V14.01,2013-04-20 20:37:00,
2013-04-20 16:42:00,34.0,21.2,30.20,WNW,292,7.0,19.0,59,0.00,,---,0.03,VWS V14.01,2013-04-20 20:42:00,
2013-04-20 16:47:00,33.0,20.6,30.21,NNW,338,6.0,23.0,60,0.00,,---,0.03,VWS V14.01,2013-04-20 20:47:00,
2013-04-20 16:52:00,33.0,20.6,30.21,NNW,338,6.0,23.0,60,0.00,,---,0.03,VWS V14.01,2013-04-20 20:52:00,
2013-04-20 16:57:00,33.0,21.4,30.21,WNW,292,10.0,23.0,62,0.00,,---,0.03,VWS V14.01,2013-04-20 20:57:00,
2013-04-20 17:02:00,34.0,22.0,30.21,WNW,292,18.0,19.0,61,0.00,,---,0.03,VWS V14.01,2013-04-20 21:02:00,
2013-04-20 17:07:00,34.0,21.2,30.22,WNW,292,5.0,23.0,59,0.00,,---,0.03,VWS V14.01,2013-04-20 21:07:00,
2013-04-20 17:12:00,33.0,19.9,30.22,NNW,338,9.0,25.0,58,0.00,,---,0.03,VWS V14.01,2013-04-20 21:12:00,
2013-04-20 17:17:00,33.0,19.9,30.22,WNW,292,6.0,25.0,58,0.00,,---,0.03,VWS V14.01,2013-04-20 21:17:00,
2013-04-20 17:22:00,34.0,20.4,30.22,NNW,338,11.0,18.0,57,0.00,,---,0.03,VWS V14.01,2013-04-20 21:22:00,
2013-04-20 17:28:00,33.0,19.0,30.23,WNW,292,16.0,23.0,56,0.00,,---,0.03,VWS V14.01,2013-04-20 21:28:00,
2013-04-20 17:33:00,34.0,19.5,30.23,WNW,292,16.0,26.0,55,0.00,,---,0.03,VWS V14.01,2013-04-20 21:33:00,
2013-04-20 17:38:00,34.0,21.6,30.23,North,0,5.0,26.0,60,0.00,,---,0.03,VWS V14.01,2013-04-20 21:38:00,
2013-04-20 17:43:00,33.0,20.6,30.24,NW,315,14.0,21.0,60,0.00,,---,0.03,VWS V14.01,2013-04-20 21:43:00,
2013-04-20 17:48:00,33.0,20.6,30.24,NNW,338,6.0,21.0,60,0.00,,---,0.03,VWS V14.01,2013-04-20 21:48:00,
2013-04-20 17:53:00,34.0,22.0,30.24,NW,315,12.0,21.0,61,0.00,,---,0.03,VWS V14.01,2013-04-20 21:53:00,
2013-04-20 17:58:00,33.0,19.9,30.25,NW,315,11.0,21.0,58,0.00,,---,0.03,VWS V14.01,2013-04-20 21:58:00,
2013-04-20 18:03:00,33.0,19.9,30.25,WNW,292,5.0,14.0,58,0.00,,---,0.03,VWS V14.01,2013-04-20 22:03:00,
2013-04-20 18:08:00,33.0,19.0,30.25,West,270,5.0,21.0,56,0.00,,---,0.03,VWS V14.01,2013-04-20 22:08:00,
2013-04-20 18:13:00,33.0,18.2,30.25,WNW,292,18.0,21.0,54,0.00,,---,0.03,VWS V14.01,2013-04-20 22:13:00,
2013-04-20 18:18:00,33.0,18.2,30.26,WNW,292,18.0,23.0,54,0.00,,---,0.03,VWS V14.01,2013-04-20 22:18:00,
2013-04-20 18:24:00,33.0,18.2,30.26,WNW,292,13.0,25.0,54,0.00,,---,0.03,VWS V14.01,2013-04-20 22:24:00,
2013-04-20 18:29:00,33.0,18.6,30.26,WSW,248,4.0,25.0,55,0.00,,---,0.03,VWS V14.01,2013-04-20 22:29:00,
2013-04-20 18:34:00,34.0,18.7,30.26,NW,315,12.0,25.0,53,0.00,,---,0.03,VWS V14.01,2013-04-20 22:34:00,
2013-04-20 18:39:00,34.0,17.3,30.26,NW,315,13.0,25.0,50,0.00,,---,0.03,VWS V14.01,2013-04-20 22:39:00,
2013-04-20 18:44:00,33.0,17.8,30.26,WNW,292,9.0,20.0,53,0.00,,---,0.03,VWS V14.01,2013-04-20 22:44:00,
2013-04-20 18:49:00,33.0,18.2,30.26,West,270,14.0,20.0,54,0.00,,---,0.03,VWS V14.01,2013-04-20 22:49:00,
2013-04-20 18:54:00,33.0,19.0,30.27,WNW,292,15.0,20.0,56,0.00,,---,0.03,VWS V14.01,2013-04-20 22:54:00,
2013-04-20 18:59:00,34.0,20.0,30.27,West,270,9.0,20.0,56,0.00,,---,0.03,VWS V14.01,2013-04-20 22:59:00,
2013-04-20 19:05:00,34.0,19.5,30.27,West,270,13.0,18.0,55,0.00,,---,0.03,VWS V14.01,2013-04-20 23:05:00,
2013-04-20 19:10:00,34.0,19.1,30.27,West,270,13.0,18.0,54,0.00,,---,0.03,VWS V14.01,2013-04-20 23:10:00,
2013-04-20 19:15:00,34.0,19.5,30.27,West,270,10.0,18.0,55,0.00,,---,0.03,VWS V14.01,2013-04-20 23:15:00,
2013-04-20 19:20:00,33.0,19.0,30.27,WNW,292,13.0,18.0,56,0.00,,---,0.03,VWS V14.01,2013-04-20 23:20:00,
2013-04-20 19:25:00,33.0,19.4,30.28,WNW,292,16.0,18.0,57,0.00,,---,0.03,VWS V14.01,2013-04-20 23:25:00,
2013-04-20 19:30:00,33.0,20.2,30.28,WNW,292,12.0,18.0,59,0.00,,---,0.03,VWS V14.01,2013-04-20 23:30:00,
2013-04-20 19:35:00,33.0,20.2,30.28,WSW,248,10.0,18.0,59,0.00,,---,0.03,VWS V14.01,2013-04-20 23:35:00,
2013-04-20 19:40:00,33.0,20.2,30.28,WNW,292,10.0,18.0,59,0.00,,---,0.03,VWS V14.01,2013-04-20 23:40:00,
2013-04-20 19:45:00,33.0,20.6,30.29,West,270,6.0,15.0,60,0.00,,---,0.03,VWS V14.01,2013-04-20 23:45:00,
2013-04-20 19:50:00,33.0,20.6,30.29,WSW,248,6.0,16.0,60,0.00,,---,0.03,VWS V14.01,2013-04-20 23:50:00,
2013-04-20 19:55:00,33.0,21.0,30.29,WNW,292,5.0,16.0,61,0.00,,---,0.03,VWS V14.01,2013-04-20 23:55:00,
2013-04-20 20:01:00,33.0,20.6,30.30,WNW,292,11.0,13.0,60,0.00,,---,0.03,VWS V14.01,2013-04-21 00:01:00,
2013-04-20 20:06:00,32.0,20.1,30.30,WNW,292,8.0,13.0,61,0.00,,---,0.03,VWS V14.01,2013-04-21 00:06:00,
2013-04-20 20:11:00,32.0,19.7,30.30,WNW,292,8.0,14.0,60,0.00,,---,0.03,VWS V14.01,2013-04-21 00:11:00,
2013-04-20 20:16:00,32.0,19.7,30.31,West,270,10.0,17.0,60,0.00,,---,0.03,VWS V14.01,2013-04-21 00:16:00,
2013-04-20 20:21:00,32.0,20.1,30.31,WNW,292,5.0,11.0,61,0.00,,---,0.03,VWS V14.01,2013-04-21 00:21:00,
2013-04-20 20:26:00,32.0,20.5,30.31,WNW,292,6.0,11.0,62,0.00,,---,0.03,VWS V14.01,2013-04-21 00:26:00,
2013-04-20 20:31:00,32.0,20.9,30.31,WNW,292,10.0,13.0,63,0.00,,---,0.03,VWS V14.01,2013-04-21 00:31:00,
2013-04-20 20:36:00,32.0,20.9,30.32,West,270,5.0,13.0,63,0.00,,---,0.03,VWS V14.01,2013-04-21 00:36:00,
2013-04-20 20:41:00,32.0,21.6,30.32,WNW,292,5.0,6.0,65,0.00,,---,0.03,VWS V14.01,2013-04-21 00:41:00,
2013-04-20 20:46:00,32.0,21.6,30.32,West,270,7.0,9.0,65,0.00,,---,0.03,VWS V14.01,2013-04-21 00:46:00,
2013-04-20 20:51:00,32.0,21.6,30.33,WNW,292,7.0,12.0,65,0.00,,---,0.03,VWS V14.01,2013-04-21 00:51:00,
2013-04-20 20:56:00,32.0,21.6,30.33,West,270,8.0,12.0,65,0.00,,---,0.03,VWS V14.01,2013-04-21 00:56:00,
2013-04-20 21:02:00,32.0,21.9,30.33,WNW,292,5.0,8.0,66,0.00,,---,0.03,VWS V14.01,2013-04-21 01:02:00,
2013-04-20 21:07:00,32.0,21.9,30.33,West,270,6.0,8.0,66,0.00,,---,0.03,VWS V14.01,2013-04-21 01:07:00,
2013-04-20 21:12:00,31.0,21.0,30.34,West,270,2.0,8.0,66,0.00,,---,0.03,VWS V14.01,2013-04-21 01:12:00,
2013-04-20 21:17:00,31.0,21.0,30.34,WNW,292,5.0,8.0,66,0.00,,---,0.03,VWS V14.01,2013-04-21 01:17:00,
2013-04-20 21:22:00,31.0,21.0,30.34,West,270,5.0,8.0,66,0.00,,---,0.03,VWS V14.01,2013-04-21 01:22:00,
2013-04-20 21:27:00,31.0,21.3,30.34,West,270,10.0,10.0,67,0.00,,---,0.03,VWS V14.01,2013-04-21 01:27:00,
2013-04-20 21:32:00,31.0,21.7,30.35,West,270,5.0,11.0,68,0.00,,---,0.03,VWS V14.01,2013-04-21 01:32:00,
2013-04-20 21:37:00,31.0,21.3,30.35,West,270,10.0,11.0,67,0.00,,---,0.03,VWS V14.01,2013-04-21 01:37:00,
2013-04-20 21:42:00,31.0,21.7,30.35,West,270,6.0,8.0,68,0.00,,---,0.03,VWS V14.01,2013-04-21 01:42:00,
2013-04-20 21:47:00,32.0,23.0,30.35,WNW,292,3.0,8.0,69,0.00,,---,0.03,VWS V14.01,2013-04-21 01:47:00,
2013-04-20 21:52:00,32.0,23.0,30.35,NW,315,4.0,8.0,69,0.00,,---,0.03,VWS V14.01,2013-04-21 01:52:00,
2013-04-20 21:57:00,32.0,23.7,30.35,NW,315,2.0,8.0,71,0.00,,---,0.03,VWS V14.01,2013-04-21 01:57:00,
2013-04-20 22:03:00,32.0,23.7,30.35,WNW,292,3.0,7.0,71,0.00,,---,0.03,VWS V14.01,2013-04-21 02:03:00,
2013-04-20 22:08:00,32.0,23.7,30.36,NNW,338,5.0,8.0,71,0.00,,---,0.03,VWS V14.01,2013-04-21 02:08:00,
2013-04-20 22:13:00,32.0,24.0,30.36,WNW,292,3.0,10.0,72,0.00,,---,0.03,VWS V14.01,2013-04-21 02:13:00,
2013-04-20 22:18:00,32.0,24.0,30.36,NNW,338,4.0,11.0,72,0.00,,---,0.03,VWS V14.01,2013-04-21 02:18:00,
2013-04-20 22:23:00,32.0,24.0,30.36,NNW,338,3.0,9.0,72,0.00,,---,0.03,VWS V14.01,2013-04-21 02:23:00,
2013-04-20 22:28:00,32.0,24.0,30.37,WNW,292,6.0,9.0,72,0.00,,---,0.03,VWS V14.01,2013-04-21 02:28:00,
2013-04-20 22:33:00,32.0,24.3,30.37,WNW,292,3.0,10.0,73,0.00,,---,0.03,VWS V14.01,2013-04-21 02:33:00,
2013-04-20 22:38:00,32.0,24.3,30.37,NNW,338,5.0,10.0,73,0.00,,---,0.03,VWS V14.01,2013-04-21 02:38:00,
2013-04-20 22:43:00,32.0,24.7,30.37,North,0,6.0,8.0,74,0.00,,---,0.03,VWS V14.01,2013-04-21 02:43:00,
2013-04-20 22:48:00,31.0,23.7,30.37,NNW,338,5.0,8.0,74,0.00,,---,0.03,VWS V14.01,2013-04-21 02:48:00,
2013-04-20 22:53:00,31.0,23.7,30.38,NNW,338,4.0,9.0,74,0.00,,---,0.03,VWS V14.01,2013-04-21 02:53:00,
2013-04-20 22:58:00,31.0,24.0,30.38,NNW,338,6.0,9.0,75,0.00,,---,0.03,VWS V14.01,2013-04-21 02:58:00,
2013-04-20 23:03:00,31.0,24.0,30.38,NW,315,2.0,8.0,75,0.00,,---,0.03,VWS V14.01,2013-04-21 03:03:00,
2013-04-20 23:09:00,31.0,24.3,30.38,NNW,338,6.0,8.0,76,0.00,,---,0.03,VWS V14.01,2013-04-21 03:09:00,
2013-04-20 23:14:00,31.0,24.3,30.38,NNW,338,1.0,8.0,76,0.00,,---,0.03,VWS V14.01,2013-04-21 03:14:00,
2013-04-20 23:19:00,31.0,24.0,30.38,NNW,338,3.0,8.0,75,0.00,,---,0.03,VWS V14.01,2013-04-21 03:19:00,
2013-04-20 23:24:00,31.0,24.0,30.38,NNW,338,5.0,8.0,75,0.00,,---,0.03,VWS V14.01,2013-04-21 03:24:00,
2013-04-20 23:29:00,31.0,24.0,30.39,NNW,338,6.0,8.0,75,0.00,,---,0.03,VWS V14.01,2013-04-21 03:29:00,
2013-04-20 23:34:00,31.0,24.0,30.39,North,0,2.0,9.0,75,0.00,,---,0.03,VWS V14.01,2013-04-21 03:34:00,
2013-04-20 23:39:00,31.0,24.3,30.39,NNW,338,3.0,9.0,76,0.00,,---,0.03,VWS V14.01,2013-04-21 03:39:00,
2013-04-20 23:44:00,31.0,24.0,30.39,North,0,3.0,8.0,75,0.00,,---,0.03,VWS V14.01,2013-04-21 03:44:00,
2013-04-20 23:49:00,31.0,24.3,30.39,NNW,338,3.0,10.0,76,0.00,,---,0.03,VWS V14.01,2013-04-21 03:49:00,
2013-04-20 23:54:00,31.0,24.6,30.39,North,0,5.0,10.0,77,0.00,,---,0.03,VWS V14.01,2013-04-21 03:54:00,
2013-04-20 23:59:00,31.0,25.0,30.39,North,0,5.0,10.0,78,0.00,,---,0.03,VWS V14.01,2013-04-21 03:59:00,